Time;durP1;ratioP1;P1;durP2;ratioP2;P2;SDS_P1;SDS_P2;PMS_P1;PMS_P2;Temp;Humidity;BMP_temperature;BMP_pressure;BME280_temperature;BME280_humidity;BME280_pressure;Samples;Min_cycle;Max_cycle;Signal;HPM_P1;HPM_P2
2023/10/23 00:00:08;;;;;;;;;;;;;;;15.18;94.65;95368.56;5076037;28;1048;-65
2023/10/23 00:02:38;;;;;;;;;;;;;;;15.14;94.31;95364.53;5076096;28;1040;-65
2023/10/23 00:05:04;;;;;;;;;;;;;;;14.95;95.40;95355.13;5076048;28;1910;-65
2023/10/23 00:07:30;;;;;;;;;;;;;;;14.89;96.64;95355.88;5075947;28;1024;-65
2023/10/23 00:09:56;;;;;;;;;;;;;;;14.98;96.98;95354.78;5074752;28;1087;-65
2023/10/23 00:12:22;;;;;;;;;;;;;;;15.21;95.38;95349.31;5075878;28;1044;-65
2023/10/23 00:14:48;;;;;;;;;;;;;;;15.28;95.41;95352.13;5075776;28;1099;-65
2023/10/23 00:17:15;;;;;;;;;;;;;;;15.26;96.15;95351.47;5075653;28;1044;-65
2023/10/23 00:19:41;;;;;;;;;;;;;;;15.16;96.20;95347.19;5074677;28;988;-65
2023/10/23 00:22:07;;;;;;;;;;;;;;;15.22;96.74;95342.94;5075660;28;1111;-65
2023/10/23 00:24:33;;;;;;;;;;;;;;;15.22;97.38;95345.63;5075378;28;1914;-65
2023/10/23 00:26:59;;;;;;;;;;;;;;;15.26;96.56;95341.53;5075433;28;956;-65
2023/10/23 00:29:25;;;;;;;;;;;;;;;15.43;95.24;95344.88;5075765;28;965;-65
2023/10/23 00:31:50;;;;;;;;;;;;;;;15.56;95.54;95350.44;5074581;28;956;-65
2023/10/23 00:34:16;;;;;;;;;;;;;;;15.56;95.10;95355.00;5075209;28;1278;-64
2023/10/23 00:36:42;;;;;;;;;;;;;;;15.65;94.67;95347.63;5075294;28;921;-63
2023/10/23 00:39:08;;;;;;;;;;;;;;;15.72;94.48;95352.09;5075222;28;1029;-64
2023/10/23 00:41:34;;;;;;;;;;;;;;;15.67;95.21;95349.13;5075093;28;1099;-64
2023/10/23 00:44:01;;;;;;;;;;;;;;;15.56;95.96;95353.13;5075102;28;1910;-64
2023/10/23 00:46:28;;;;;;;;;;;;;;;15.44;96.15;95349.22;5075128;28;1032;-65
2023/10/23 00:48:54;;;;;;;;;;;;;;;15.41;96.34;95344.22;5075185;28;1036;-65
2023/10/23 00:51:20;;;;;;;;;;;;;;;15.31;98.17;95346.34;5075014;28;1098;-65
2023/10/23 00:53:46;;;;;;;;;;;;;;;15.44;97.55;95343.84;5075092;28;1039;-65
2023/10/23 00:56:13;;;;;;;;;;;;;;;15.58;96.51;95347.56;5074885;28;1186;-65
2023/10/23 00:58:40;;;;;;;;;;;;;;;15.66;96.11;95346.63;5073626;28;905;-65
2023/10/23 01:01:06;;;;;;;;;;;;;;;15.73;95.62;95344.84;5074995;28;1012;-65
2023/10/23 01:03:32;;;;;;;;;;;;;;;15.68;96.42;95350.81;5074727;28;1029;-65
2023/10/23 01:05:58;;;;;;;;;;;;;;;15.63;96.49;95353.22;5074853;28;1906;-66
2023/10/23 01:08:24;;;;;;;;;;;;;;;15.60;96.36;95342.81;5073506;28;1333;-66
2023/10/23 01:10:50;;;;;;;;;;;;;;;15.60;96.15;95348.22;5074793;28;1032;-66
2023/10/23 01:13:17;;;;;;;;;;;;;;;15.49;96.58;95340.59;5074704;28;995;-65
2023/10/23 01:15:43;;;;;;;;;;;;;;;15.43;96.54;95337.63;5074666;28;1128;-65
2023/10/23 01:18:09;;;;;;;;;;;;;;;15.39;97.12;95348.97;5074636;28;1063;-65
2023/10/23 01:20:35;;;;;;;;;;;;;;;15.36;97.94;95346.63;5074318;28;1045;-65
2023/10/23 01:23:02;;;;;;;;;;;;;;;15.32;98.30;95346.16;5074333;28;1228;-66
2023/10/23 01:25:28;;;;;;;;;;;;;;;15.37;97.32;95343.75;5074302;28;1992;-65
2023/10/23 01:27:54;;;;;;;;;;;;;;;15.31;98.72;95338.28;5074284;28;1021;-65
2023/10/23 01:30:21;;;;;;;;;;;;;;;15.22;99.89;95343.75;5074330;28;944;-65
2023/10/23 01:32:47;;;;;;;;;;;;;;;15.15;99.81;95344.69;5074082;28;1091;-65
2023/10/23 01:35:13;;;;;;;;;;;;;;;15.23;98.76;95342.75;5074182;28;1052;-65
2023/10/23 01:37:42;;;;;;;;;;;;;;;15.27;98.14;95345.91;5074185;28;1047;-65
2023/10/23 01:40:09;;;;;;;;;;;;;;;15.24;98.67;95332.81;5074121;28;988;-66
2023/10/23 01:42:35;;;;;;;;;;;;;;;15.20;98.99;95332.34;5074123;28;1041;-66
2023/10/23 01:45:00;;;;;;;;;;;;;;;15.24;98.46;95330.13;5073902;28;1906;-65
2023/10/23 01:47:27;;;;;;;;;;;;;;;15.34;97.97;95327.97;5073864;28;1103;-65
2023/10/23 01:49:53;;;;;;;;;;;;;;;15.43;97.85;95340.31;5073912;28;1108;-65
2023/10/23 01:52:19;;;;;;;;;;;;;;;15.68;96.77;95353.50;5073824;28;1020;-66
2023/10/23 01:54:45;;;;;;;;;;;;;;;15.73;95.90;95342.16;5072599;28;1278;-66
2023/10/23 01:57:14;;;;;;;;;;;;;;;15.68;96.21;95349.97;5073956;28;1055;-66
2023/10/23 01:59:40;;;;;;;;;;;;;;;15.60;96.44;95342.81;5073985;28;1000;-66
2023/10/23 02:02:06;;;;;;;;;;;;;;;15.43;96.88;95343.00;5073694;28;1111;-66
2023/10/23 02:04:34;;;;;;;;;;;;;;;15.40;97.25;95347.94;5073681;28;1991;-65
2023/10/23 02:07:00;;;;;;;;;;;;;;;15.48;97.82;95363.16;5073606;28;1045;-62
2023/10/23 02:09:27;;;;;;;;;;;;;;;15.53;97.79;95358.06;5073430;28;996;-63
2023/10/23 02:11:53;;;;;;;;;;;;;;;15.56;97.89;95358.53;5073166;28;961;-63
2023/10/23 02:14:19;;;;;;;;;;;;;;;15.58;97.33;95361.03;5073657;28;972;-65
2023/10/23 02:16:45;;;;;;;;;;;;;;;15.53;96.98;95352.66;5073451;28;1024;-63
2023/10/23 02:19:11;;;;;;;;;;;;;;;15.39;97.58;95357.06;5073395;28;1127;-64
2023/10/23 02:21:37;;;;;;;;;;;;;;;15.39;98.49;95351.66;5073548;28;976;-64
2023/10/23 02:24:03;;;;;;;;;;;;;;;15.46;97.98;95352.59;5073011;28;1172;-64
2023/10/23 02:26:29;;;;;;;;;;;;;;;15.56;96.47;95352.31;5073466;28;1037;-65
2023/10/23 02:28:55;;;;;;;;;;;;;;;15.65;96.89;95355.72;5073393;28;1051;-65
2023/10/23 02:31:22;;;;;;;;;;;;;;;15.50;97.67;95348.50;5073312;28;1044;-64
2023/10/23 02:33:49;;;;;;;;;;;;;;;15.62;96.57;95355.06;5073226;28;1150;-63
2023/10/23 02:36:15;;;;;;;;;;;;;;;15.65;96.95;95358.41;5073285;28;980;-64
2023/10/23 02:38:41;;;;;;;;;;;;;;;15.60;97.65;95357.13;5073273;28;1043;-65
2023/10/23 02:41:07;;;;;;;;;;;;;;;15.60;97.39;95357.13;5072118;28;809;-64
2023/10/23 02:43:33;;;;;;;;;;;;;;;15.56;97.22;95355.00;5073311;28;1055;-65
2023/10/23 02:46:00;;;;;;;;;;;;;;;15.51;97.38;95357.41;5073205;28;1988;-64
2023/10/23 02:48:26;;;;;;;;;;;;;;;15.70;96.24;95364.91;5073205;28;948;-65
2023/10/23 02:50:53;;;;;;;;;;;;;;;15.54;98.21;95370.53;5073122;28;1039;-65
2023/10/23 02:53:19;;;;;;;;;;;;;;;15.51;97.85;95365.50;5073027;28;1035;-66
2023/10/23 02:55:45;;;;;;;;;;;;;;;15.53;98.66;95369.66;5073267;28;1059;-65
2023/10/23 02:58:11;;;;;;;;;;;;;;;15.37;100.00;95370.72;5072917;28;1041;-67
2023/10/23 03:00:37;;;;;;;;;;;;;;;15.40;99.65;95369.47;5073014;28;1087;-65
2023/10/23 03:03:03;;;;;;;;;;;;;;;15.32;100.00;95367.72;5072970;28;1060;-65
2023/10/23 03:05:29;;;;;;;;;;;;;;;15.26;100.00;95363.09;5072837;28;1910;-64
2023/10/23 03:07:54;;;;;;;;;;;;;;;15.33;100.00;95363.19;5072913;28;1982;-65
2023/10/23 03:10:20;;;;;;;;;;;;;;;15.27;100.00;95372.00;5073100;28;993;-64
2023/10/23 03:12:46;;;;;;;;;;;;;;;15.23;100.00;95374.22;5073189;28;1010;-64
2023/10/23 03:15:14;;;;;;;;;;;;;;;15.34;100.00;95381.00;5072981;28;1000;-64
2023/10/23 03:17:40;;;;;;;;;;;;;;;15.37;100.00;95386.88;5072989;28;1051;-63
2023/10/23 03:20:06;;;;;;;;;;;;;;;15.32;100.00;95383.88;5072992;28;1051;-63
2023/10/23 03:22:32;;;;;;;;;;;;;;;15.31;100.00;95375.97;5072787;28;965;-63
2023/10/23 03:24:59;;;;;;;;;;;;;;;15.38;100.00;95376.91;5076265;28;1989;-63
2023/10/23 03:27:25;;;;;;;;;;;;;;;15.43;100.00;95375.34;5075326;28;1016;-66
2023/10/23 03:29:51;;;;;;;;;;;;;;;15.46;100.00;95374.16;5076638;28;1032;-65
2023/10/23 03:32:16;;;;;;;;;;;;;;;15.50;100.00;95372.75;5076296;28;1125;-65
2023/10/23 03:34:42;;;;;;;;;;;;;;;15.59;100.00;95376.19;5076403;28;1091;-64
2023/10/23 03:37:08;;;;;;;;;;;;;;;15.64;100.00;95375.63;5076319;28;1039;-64
2023/10/23 03:39:34;;;;;;;;;;;;;;;15.67;100.00;95378.78;5076473;28;1069;-64
2023/10/23 03:42:00;;;;;;;;;;;;;;;15.70;100.00;95381.09;5076389;28;960;-63
2023/10/23 03:44:26;;;;;;;;;;;;;;;15.61;100.00;95380.38;5076120;28;1914;-65
2023/10/23 03:46:53;;;;;;;;;;;;;;;15.52;100.00;95377.97;5076126;28;1264;-65
2023/10/23 03:49:19;;;;;;;;;;;;;;;15.56;100.00;95384.66;5076161;28;1063;-64
2023/10/23 03:51:45;;;;;;;;;;;;;;;15.72;100.00;95383.59;5076036;28;1007;-65
2023/10/23 03:54:11;;;;;;;;;;;;;;;15.60;100.00;95372.47;5076190;28;1003;-63
2023/10/23 03:56:37;;;;;;;;;;;;;;;15.57;100.00;95375.53;5076147;28;1051;-63
2023/10/23 03:59:03;;;;;;;;;;;;;;;15.58;100.00;95371.81;5075899;28;1072;-63
2023/10/23 04:01:29;;;;;;;;;;;;;;;15.63;100.00;95369.38;5075766;28;1099;-65
2023/10/23 04:03:55;;;;;;;;;;;;;;;15.57;100.00;95370.13;5075851;28;1036;-65
2023/10/23 04:06:21;;;;;;;;;;;;;;;15.56;100.00;95371.19;5075646;28;1906;-65
2023/10/23 04:08:50;;;;;;;;;;;;;;;15.45;100.00;95371.63;5076041;28;956;-65
2023/10/23 04:11:16;;;;;;;;;;;;;;;15.51;100.00;95365.50;5075844;28;972;-65
2023/10/23 04:13:42;;;;;;;;;;;;;;;15.40;100.00;95367.66;5075629;28;1067;-67
2023/10/23 04:16:08;;;;;;;;;;;;;;;15.35;100.00;95364.66;5075663;28;1083;-66
2023/10/23 04:18:34;;;;;;;;;;;;;;;15.46;100.00;95362.53;5075540;28;1023;-65
2023/10/23 04:21:04;;;;;;;;;;;;;;;15.59;100.00;95365.41;5075457;28;1032;-65
2023/10/23 04:23:31;;;;;;;;;;;;;;;15.58;100.00;95361.03;5075474;28;1251;-65
2023/10/23 04:25:57;;;;;;;;;;;;;;;15.56;100.00;95366.63;5075360;28;1988;-66
2023/10/23 04:28:23;;;;;;;;;;;;;;;15.58;100.00;95361.03;5075313;28;1032;-70
2023/10/23 04:30:49;;;;;;;;;;;;;;;15.54;100.00;95365.13;5075552;28;1011;-67
2023/10/23 04:33:22;;;;;;;;;;;;;;;15.58;100.00;95366.44;5073977;28;1166;-64
2023/10/23 04:35:48;;;;;;;;;;;;;;;15.56;100.00;95366.63;5075024;28;1027;-65
2023/10/23 04:38:14;;;;;;;;;;;;;;;15.61;100.00;95371.44;5075446;28;1003;-66
2023/10/23 04:40:42;;;;;;;;;;;;;;;15.62;100.00;95370.41;5075391;28;1035;-66
2023/10/23 04:43:08;;;;;;;;;;;;;;;15.43;100.00;95372.66;5075340;28;1055;-64
2023/10/23 04:45:37;;;;;;;;;;;;;;;15.43;100.00;95372.66;5075032;28;2012;-63
2023/10/23 04:48:03;;;;;;;;;;;;;;;15.46;100.00;95368.78;5075108;28;957;-63
2023/10/23 04:50:33;;;;;;;;;;;;;;;15.39;100.00;95368.66;5074938;28;1091;-64
2023/10/23 04:53:01;;;;;;;;;;;;;;;15.20;100.00;95345.81;5075012;28;1041;-63
2023/10/23 04:55:38;;;;;;;;;;;;;;;15.30;100.00;95375.16;5075049;28;1019;-64
2023/10/23 04:58:05;;;;;;;;;;;;;;;15.43;100.00;95374.50;5074957;28;1048;-64
2023/10/23 05:00:33;;;;;;;;;;;;;;;15.23;100.00;95385.00;5074765;28;1048;-64
2023/10/23 05:02:59;;;;;;;;;;;;;;;15.01;100.00;95387.56;5074802;28;1374;-63
2023/10/23 05:05:25;;;;;;;;;;;;;;;14.86;100.00;95394.78;5074876;28;1907;-64
2023/10/23 05:07:51;;;;;;;;;;;;;;;15.02;100.00;95404.56;5074876;28;1055;-64
2023/10/23 05:10:17;;;;;;;;;;;;;;;15.07;100.00;95412.09;5074695;28;1005;-64
2023/10/23 05:12:43;;;;;;;;;;;;;;;15.08;100.00;95402.97;5074658;28;960;-63
2023/10/23 05:15:09;;;;;;;;;;;;;;;15.03;100.00;95400.84;5074627;28;1063;-63
2023/10/23 05:17:35;;;;;;;;;;;;;;;14.98;100.00;95398.69;5074317;28;1298;-59
2023/10/23 05:20:01;;;;;;;;;;;;;;;14.99;100.00;95407.63;5074456;28;1128;-60
2023/10/23 05:22:27;;;;;;;;;;;;;;;14.93;100.00;95411.03;5074288;28;1017;-60
2023/10/23 05:24:53;;;;;;;;;;;;;;;14.88;100.00;95411.59;5073959;28;1934;-60
2023/10/23 05:27:19;;;;;;;;;;;;;;;14.85;100.00;95411.94;5074563;28;957;-60
2023/10/23 05:29:45;;;;;;;;;;;;;;;14.80;100.00;95417.03;5074190;28;1000;-61
2023/10/23 05:32:11;;;;;;;;;;;;;;;14.72;100.00;95411.69;5072694;28;1173;-60
2023/10/23 05:34:37;;;;;;;;;;;;;;;14.64;100.00;95413.47;5074264;28;973;-60
2023/10/23 05:37:03;;;;;;;;;;;;;;;14.94;100.00;95413.53;5072880;28;1052;-60
2023/10/23 05:39:29;;;;;;;;;;;;;;;15.15;100.00;95422.78;5073917;28;968;-61
2023/10/23 05:41:55;;;;;;;;;;;;;;;15.27;100.00;95421.34;5073841;28;1099;-60
2023/10/23 05:44:21;;;;;;;;;;;;;;;15.18;100.00;95425.94;5073767;28;1914;-60
2023/10/23 05:46:47;;;;;;;;;;;;;;;15.12;100.00;95425.84;5072951;28;1040;-60
2023/10/23 05:49:13;;;;;;;;;;;;;;;15.18;100.00;95430.50;5073671;28;1080;-61
2023/10/23 05:51:39;;;;;;;;;;;;;;;15.19;100.00;95433.00;5073903;28;1072;-60
2023/10/23 05:54:05;;;;;;;;;;;;;;;15.20;100.00;95433.84;5073659;28;1086;-60
2023/10/23 05:56:31;;;;;;;;;;;;;;;15.26;100.00;95441.19;5074066;28;1006;-60
2023/10/23 05:58:57;;;;;;;;;;;;;;;15.27;100.00;95445.56;5073668;28;1035;-60
2023/10/23 06:01:23;;;;;;;;;;;;;;;15.28;100.00;95441.84;5073330;28;1063;-61
2023/10/23 06:03:49;;;;;;;;;;;;;;;15.36;100.00;95447.16;5074052;28;972;-60
2023/10/23 06:06:15;;;;;;;;;;;;;;;15.50;100.00;95452.75;5073801;28;1902;-60
2023/10/23 06:08:41;;;;;;;;;;;;;;;15.43;100.00;95456.19;5073985;28;968;-60
2023/10/23 06:11:08;;;;;;;;;;;;;;;15.40;100.00;95461.94;5073655;28;1035;-60
2023/10/23 06:13:34;;;;;;;;;;;;;;;15.52;100.00;95458.81;5073507;28;983;-60
2023/10/23 06:17:20;;;;;;;;;;;;;;;15.55;100.00;95453.84;5097356;27;1741881;-59
2023/10/23 06:19:46;;;;;;;;;;;;;;;15.66;100.00;95460.66;5152530;27;1094;-60
2023/10/23 06:22:12;;;;;;;;;;;;;;;15.76;100.00;95460.41;5152254;27;980;-60
2023/10/23 06:24:38;;;;;;;;;;;;;;;15.87;100.00;95456.44;5134271;27;1008;-60
2023/10/23 06:27:04;;;;;;;;;;;;;;;16.09;100.00;95463.56;5133817;27;1448;-61
2023/10/23 06:29:30;;;;;;;;;;;;;;;16.37;97.94;95469.13;5152062;27;1122;-62
2023/10/23 06:31:56;;;;;;;;;;;;;;;16.47;99.04;95463.41;5152286;27;988;-62
2023/10/23 06:34:22;;;;;;;;;;;;;;;16.49;99.15;95461.34;5151997;27;1150;-61
2023/10/23 06:36:48;;;;;;;;;;;;;;;16.61;97.25;95468.97;5151843;27;1918;-61
2023/10/23 06:39:15;;;;;;;;;;;;;;;16.66;98.17;95477.34;5152045;27;948;-62
2023/10/23 06:41:41;;;;;;;;;;;;;;;16.63;97.42;95477.69;5152090;27;1020;-62
2023/10/23 06:44:07;;;;;;;;;;;;;;;16.72;97.38;95471.97;5151978;27;1043;-61
2023/10/23 06:46:33;;;;;;;;;;;;;;;16.69;97.17;95480.47;5151669;27;1064;-61
2023/10/23 06:48:59;;;;;;;;;;;;;;;16.82;97.78;95485.19;5151840;27;1027;-62
2023/10/23 06:51:25;;;;;;;;;;;;;;;16.98;94.79;95492.25;5151602;27;1066;-62
2023/10/23 06:53:51;;;;;;;;;;;;;;;16.97;94.22;95485.97;5151641;27;968;-61
2023/10/23 06:56:17;;;;;;;;;;;;;;;17.07;93.34;95484.81;5151651;27;1921;-62
2023/10/23 06:58:43;;;;;;;;;;;;;;;16.95;93.75;95481.81;5151746;27;956;-61
2023/10/23 07:01:09;;;;;;;;;;;;;;;17.03;95.34;95483.53;5151607;27;1091;-62
2023/10/23 07:03:35;;;;;;;;;;;;;;;17.01;94.27;95485.59;5151341;27;1044;-62
2023/10/23 07:06:05;;;;;;;;;;;;;;;17.01;95.23;95491.00;5151403;27;1088;-61
2023/10/23 07:08:31;;;;;;;;;;;;;;;17.05;95.73;95489.59;5151233;27;1091;-61
2023/10/23 07:10:57;;;;;;;;;;;;;;;17.08;96.86;95486.50;5151536;27;1047;-61
2023/10/23 07:13:23;;;;;;;;;;;;;;;17.09;95.37;95497.13;5151169;27;1028;-62
2023/10/23 07:15:49;;;;;;;;;;;;;;;16.97;95.96;95490.56;5151122;27;1913;-62
2023/10/23 07:18:17;;;;;;;;;;;;;;;16.98;97.44;95493.06;5150988;27;1190;-62
2023/10/23 07:20:56;;;;;;;;;;;;;;;17.02;97.17;95495.41;5151146;27;1031;-62
2023/10/23 07:23:22;;;;;;;;;;;;;;;16.92;98.40;95485.75;5151002;27;1040;-61
2023/10/23 07:25:57;;;;;;;;;;;;;;;17.06;97.15;95480.47;5151000;27;1126;-62
2023/10/23 07:28:23;;;;;;;;;;;;;;;17.73;94.25;95488.06;5139253;27;1055;-62
2023/10/23 07:30:50;;;;;;;;;;;;;;;17.81;93.21;95484.38;5137213;27;1003;-62
2023/10/23 07:33:16;;;;;;;;;;;;;;;17.84;92.44;95485.88;5127278;27;1153;-61
2023/10/23 07:35:41;;;;;;;;;;;;;;;17.72;92.97;95480.19;5116360;28;1905;-61
2023/10/23 07:38:07;;;;;;;;;;;;;;;17.74;92.46;95483.50;5116671;28;992;-62
2023/10/23 07:40:33;;;;;;;;;;;;;;;17.83;92.76;95478.78;5116329;28;1115;-62
2023/10/23 07:42:59;;;;;;;;;;;;;;;17.81;92.05;95478.13;5116499;28;1032;-61
2023/10/23 07:45:25;;;;;;;;;;;;;;;17.86;92.17;95470.31;5116354;28;1064;-61
2023/10/23 07:47:51;;;;;;;;;;;;;;;17.97;91.66;95480.56;5116233;28;966;-61
2023/10/23 07:50:17;;;;;;;;;;;;;;;17.98;91.73;95479.50;5116447;28;1044;-61
2023/10/23 07:52:43;;;;;;;;;;;;;;;17.98;92.54;95479.50;5116427;28;1023;-61
2023/10/23 07:55:09;;;;;;;;;;;;;;;18.08;90.93;95474.59;5116207;28;1913;-61
2023/10/23 07:57:35;;;;;;;;;;;;;;;17.99;91.26;95467.69;5116242;28;968;-61
2023/10/23 08:00:06;;;;;;;;;;;;;;;17.90;93.03;95466.16;5115985;28;1110;-61
2023/10/23 08:02:32;;;;;;;;;;;;;;;17.93;92.29;95463.06;5115860;28;1067;-62
2023/10/23 08:04:57;;;;;;;;;;;;;;;17.91;91.68;95465.97;5116135;28;992;-61
2023/10/23 08:07:23;;;;;;;;;;;;;;;17.93;91.09;95473.88;5115688;28;965;-61
2023/10/23 08:09:49;;;;;;;;;;;;;;;17.88;92.12;95470.94;5115769;28;1284;-61
2023/10/23 08:12:15;;;;;;;;;;;;;;;17.91;92.27;95465.97;5115807;28;1012;-61
2023/10/23 08:14:41;;;;;;;;;;;;;;;17.93;91.81;95469.31;5116192;28;1041;-61
2023/10/23 08:17:07;;;;;;;;;;;;;;;18.02;93.34;95461.88;5115318;28;1906;-61
2023/10/23 08:19:33;;;;;;;;;;;;;;;18.19;91.46;95461.53;5115508;28;1196;-61
2023/10/23 08:21:59;;;;;;;;;;;;;;;18.44;89.79;95465.41;5097733;28;994;-61
2023/10/23 08:24:25;;;;;;;;;;;;;;;18.99;86.48;95454.53;5115664;28;1004;-61
2023/10/23 08:26:51;;;;;;;;;;;;;;;19.16;86.90;95464.97;5115620;28;1028;-61
2023/10/23 08:29:18;;;;;;;;;;;;;;;19.13;85.85;95465.38;5115374;28;1151;-62
2023/10/23 08:31:43;;;;;;;;;;;;;;;19.15;86.25;95460.59;5097349;28;1065;-61
2023/10/23 08:34:10;;;;;;;;;;;;;;;19.11;86.22;95454.75;5132543;27;1161;-61
2023/10/23 08:36:36;;;;;;;;;;;;;;;19.07;86.77;95461.63;5135995;27;1980;-61
2023/10/23 08:39:02;;;;;;;;;;;;;;;19.23;84.99;95457.66;5134801;27;1032;-61
2023/10/23 08:41:28;;;;;;;;;;;;;;;19.13;85.91;95463.50;5135792;27;1043;-62
2023/10/23 08:43:55;;;;;;;;;;;;;;;19.26;85.80;95460.81;5117623;27;969;-61
2023/10/23 08:46:23;;;;;;;;;;;;;;;19.41;83.79;95457.91;5135575;27;1083;-61
2023/10/23 08:48:49;;;;;;;;;;;;;;;19.60;81.89;95458.94;5135566;27;1087;-61
2023/10/23 08:51:16;;;;;;;;;;;;;;;19.81;82.17;95459.78;5135683;27;964;-61
2023/10/23 08:54:02;;;;;;;;;;;;;;;19.75;81.00;95461.44;5117270;27;1028;-61
2023/10/23 08:56:29;;;;;;;;;;;;;;;19.80;80.35;95452.66;5117680;27;1992;-61
2023/10/23 08:58:59;;;;;;;;;;;;;;;19.93;81.75;95457.25;5135388;27;957;-61
2023/10/23 09:01:25;;;;;;;;;;;;;;;20.12;78.72;95456.34;5135534;27;1019;-61
2023/10/23 09:03:51;;;;;;;;;;;;;;;20.27;79.24;95454.22;5135430;27;1023;-61
2023/10/23 09:06:20;;;;;;;;;;;;;;;20.26;78.69;95457.13;5117124;27;985;-61
2023/10/23 09:08:46;;;;;;;;;;;;;;;20.27;78.22;95451.50;5116943;27;1083;-61
2023/10/23 09:11:13;;;;;;;;;;;;;;;20.56;77.84;95440.31;5135211;27;987;-61
2023/10/23 09:13:39;;;;;;;;;;;;;;;21.02;77.53;95444.69;5116809;27;1045;-61
2023/10/23 09:16:06;;;;;;;;;;;;;;;21.44;73.03;95453.19;5134853;27;1965;-62
2023/10/23 09:18:32;;;;;;;;;;;;;;;21.57;72.84;95447.66;5117021;27;1033;-61
2023/10/23 09:20:58;;;;;;;;;;;;;;;21.47;72.95;95447.28;5135142;27;962;-61
2023/10/23 09:23:25;;;;;;;;;;;;;;;21.49;73.68;95439.75;5135028;27;1140;-61
2023/10/23 09:25:56;;;;;;;;;;;;;;;21.80;73.34;95433.41;5134889;27;1095;-61
2023/10/23 09:28:22;;;;;;;;;;;;;;;22.23;70.71;95432.53;5134895;27;936;-62
2023/10/23 09:30:48;;;;;;;;;;;;;;;22.56;69.79;95441.38;5134790;27;1080;-61
2023/10/23 09:33:14;;;;;;;;;;;;;;;22.68;68.85;95436.00;5125197;27;1156;-61
2023/10/23 09:35:40;;;;;;;;;;;;;;;22.96;66.69;95424.50;5114322;28;1910;-61
2023/10/23 09:38:15;;;;;;;;;;;;;;;23.17;67.44;95417.69;5114157;28;1091;-61
2023/10/23 09:40:43;;;;;;;;;;;;;;;23.17;65.82;95417.69;5114233;28;1027;-62
2023/10/23 09:43:10;;;;;;;;;;;;;;;23.43;64.70;95410.13;5114066;28;1047;-61
2023/10/23 09:45:36;;;;;;;;;;;;;;;23.12;66.01;95417.56;5096144;28;1014;-61
2023/10/23 09:48:02;;;;;;;;;;;;;;;23.25;65.77;95411.06;5114160;28;1011;-61
2023/10/23 09:50:29;;;;;;;;;;;;;;;23.36;63.93;95410.25;5113758;28;985;-61
2023/10/23 09:52:56;;;;;;;;;;;;;;;23.51;64.40;95407.09;5113880;28;1028;-61
2023/10/23 09:55:25;;;;;;;;;;;;;;;23.46;62.64;95399.59;5113752;28;1913;-61
2023/10/23 09:57:53;;;;;;;;;;;;;;;23.42;64.88;95395.69;5113826;28;1091;-60
2023/10/23 10:00:19;;;;;;;;;;;;;;;23.75;62.06;95397.84;5113893;28;1102;-61
2023/10/23 10:02:48;;;;;;;;;;;;;;;24.18;61.70;95395.78;5113947;28;1043;-61
2023/10/23 10:05:40;;;;;;;;;;;;;;;24.38;60.82;95394.53;5113892;28;905;-61
2023/10/23 10:08:13;;;;;;;;;;;;;;;24.29;59.35;95391.38;5075362;28;1220;-61
2023/10/23 10:10:39;;;;;;;;;;;;;;;24.44;60.18;95388.97;5113963;28;1048;-61
2023/10/23 10:13:06;;;;;;;;;;;;;;;24.54;58.59;95378.25;5113648;28;1056;-61
2023/10/23 10:15:33;;;;;;;;;;;;;;;24.47;58.65;95373.97;5113662;28;1906;-61
2023/10/23 10:17:59;;;;;;;;;;;;;;;24.69;58.48;95365.97;5113606;28;1096;-61
2023/10/23 10:20:25;;;;;;;;;;;;;;;24.87;57.93;95357.56;5114101;28;1028;-61
2023/10/23 10:22:54;;;;;;;;;;;;;;;24.69;58.89;95360.50;5113528;28;1032;-60
2023/10/23 10:25:20;;;;;;;;;;;;;;;24.55;59.12;95352.59;5113436;28;1028;-60
2023/10/23 10:27:56;;;;;;;;;;;;;;;24.28;60.43;95352.31;5113735;28;1072;-61
2023/10/23 10:30:40;;;;;;;;;;;;;;;24.14;59.65;95354.47;5113629;28;989;-61
2023/10/23 10:33:16;;;;;;;;;;;;;;;24.36;59.23;95349.19;5121646;28;1157;-60
2023/10/23 10:35:47;;;;;;;;;;;;;;;24.65;58.45;95338.28;5134211;28;1905;-60
2023/10/23 10:38:13;;;;;;;;;;;;;;;24.76;57.31;95344.78;5134077;28;1091;-61
2023/10/23 10:40:59;;;;;;;;;;;;;;;24.49;58.09;95336.28;5133963;28;1036;-61
2023/10/23 10:43:26;;;;;;;;;;;;;;;24.22;59.49;95331.41;5133940;28;1023;-61
2023/10/23 10:45:53;;;;;;;;;;;;;;;24.02;60.93;95331.81;5133927;28;1086;-61
2023/10/23 10:48:19;;;;;;;;;;;;;;;23.86;60.27;95333.38;5133821;28;1048;-61
2023/10/23 10:50:46;;;;;;;;;;;;;;;23.62;61.59;95329.84;5115764;28;1037;-61
2023/10/23 10:53:13;;;;;;;;;;;;;;;23.43;62.62;95329.13;5133950;28;1020;-61
2023/10/23 10:55:39;;;;;;;;;;;;;;;23.30;63.58;95332.09;5133760;28;1984;-61
2023/10/23 10:58:06;;;;;;;;;;;;;;;23.18;64.41;95323.88;5133778;28;973;-61
2023/10/23 11:00:33;;;;;;;;;;;;;;;23.11;65.24;95323.19;5133673;28;1060;-61
2023/10/23 11:02:59;;;;;;;;;;;;;;;23.04;65.13;95323.28;5135838;27;1051;-61
2023/10/23 11:05:26;;;;;;;;;;;;;;;22.97;65.38;95319.81;5119496;27;984;-61
2023/10/23 11:08:20;;;;;;;;;;;;;;;22.98;65.65;95324.22;5133649;27;1301795;-61
2023/10/23 11:10:47;;;;;;;;;;;;;;;23.23;64.65;95317.75;5173035;27;1028;-61
2023/10/23 11:13:14;;;;;;;;;;;;;;;23.42;63.16;95321.19;5173282;27;1023;-61
2023/10/23 11:15:41;;;;;;;;;;;;;;;23.76;64.14;95320.31;5173286;27;1066;-61
2023/10/23 11:18:07;;;;;;;;;;;;;;;24.13;62.56;95316.47;5173022;27;1044;-62
2023/10/23 11:20:34;;;;;;;;;;;;;;;24.28;61.43;95316.78;5172967;27;1071;-61
2023/10/23 11:23:00;;;;;;;;;;;;;;;24.29;60.19;95310.25;5172924;27;1115;-61
2023/10/23 11:25:26;;;;;;;;;;;;;;;24.42;59.54;95305.56;5172727;27;1028;-61
2023/10/23 11:27:52;;;;;;;;;;;;;;;24.53;60.41;95302.81;5154252;27;1909;-61
2023/10/23 11:30:18;;;;;;;;;;;;;;;24.21;58.86;95307.91;5172917;27;1032;-61
2023/10/23 11:32:45;;;;;;;;;;;;;;;23.86;59.13;95300.63;5172905;27;1154;-61
2023/10/23 11:35:11;;;;;;;;;;;;;;;23.69;60.44;95305.13;5172770;27;1028;-61
2023/10/23 11:37:38;;;;;;;;;;;;;;;23.63;60.40;95292.47;5173209;27;979;-61
2023/10/23 11:40:07;;;;;;;;;;;;;;;23.37;58.46;95302.78;5172537;27;1059;-62
2023/10/23 11:42:56;;;;;;;;;;;;;;;23.42;59.73;95289.28;5172694;27;1056;-61
2023/10/23 11:45:22;;;;;;;;;;;;;;;23.70;58.32;95285.78;5172563;27;968;-61
2023/10/23 11:47:51;;;;;;;;;;;;;;;23.78;58.20;95282.72;5172350;27;1917;-61
2023/10/23 11:50:18;;;;;;;;;;;;;;;23.85;57.98;95281.78;5172322;27;946;-62
2023/10/23 11:52:45;;;;;;;;;;;;;;;23.77;57.51;95274.72;5153950;27;1052;-62
2023/10/23 11:55:15;;;;;;;;;;;;;;;23.77;59.53;95275.59;5172612;27;1115;-62
2023/10/23 11:57:41;;;;;;;;;;;;;;;23.65;58.17;95273.94;5172524;27;965;-61
2023/10/23 12:00:14;;;;;;;;;;;;;;;23.50;59.50;95269.78;5172485;27;1266;-62
2023/10/23 12:02:44;;;;;;;;;;;;;;;23.43;60.43;95265.53;5172607;27;1123;-63
2023/10/23 12:05:12;;;;;;;;;;;;;;;23.48;59.60;95274.66;5153796;27;1035;-62
2023/10/23 12:07:41;;;;;;;;;;;;;;;23.75;60.76;95272.25;5172141;27;1984;-63
2023/10/23 12:10:09;;;;;;;;;;;;;;;23.94;59.87;95261.19;5172131;27;1011;-63
2023/10/23 12:12:35;;;;;;;;;;;;;;;24.10;57.84;95267.81;5172014;27;1040;-63
2023/10/23 12:15:03;;;;;;;;;;;;;;;24.16;58.76;95258.63;5171976;27;1044;-63
2023/10/23 12:17:29;;;;;;;;;;;;;;;24.22;57.68;95263.09;5171722;27;977;-63
2023/10/23 12:19:55;;;;;;;;;;;;;;;24.34;57.57;95258.44;5157468;27;1015;-64
2023/10/23 12:22:21;;;;;;;;;;;;;;;24.44;56.44;95260.53;5158059;27;996;-63
2023/10/23 12:24:47;;;;;;;;;;;;;;;24.51;55.95;95255.75;5157889;27;1103;-63
2023/10/23 12:27:14;;;;;;;;;;;;;;;24.51;54.25;95258.50;5157550;27;1917;-63
2023/10/23 12:29:40;;;;;;;;;;;;;;;24.53;53.40;95253.63;5157873;27;1043;-63
2023/10/23 12:32:07;;;;;;;;;;;;;;;24.53;55.50;95256.34;5157641;27;1110;-63
2023/10/23 12:34:35;;;;;;;;;;;;;;;24.55;55.66;95250.63;5136752;27;1265;-62
2023/10/23 12:37:01;;;;;;;;;;;;;;;24.55;53.15;95253.38;5136835;27;1040;-63
2023/10/23 12:39:28;;;;;;;;;;;;;;;24.53;54.84;95245.41;5136895;27;1019;-64
2023/10/23 12:41:54;;;;;;;;;;;;;;;24.43;54.12;95247.91;5118610;27;973;-63
2023/10/23 12:44:19;;;;;;;;;;;;;;;24.50;54.76;95251.31;5136661;27;1044;-63
2023/10/23 12:46:46;;;;;;;;;;;;;;;24.54;54.54;95254.44;5136599;27;1918;-63
2023/10/23 12:49:12;;;;;;;;;;;;;;;24.59;53.72;95248.25;5136529;27;1072;-63
2023/10/23 12:51:38;;;;;;;;;;;;;;;24.54;52.79;95248.97;5136454;27;1028;-63
2023/10/23 12:54:04;;;;;;;;;;;;;;;24.43;53.37;95244.38;5136686;27;1084;-63